createdAt,value
2022-08-28T00:00:37.118Z,100339.66
2022-08-28T00:03:05.767Z,100328.91
2022-08-28T00:05:33.897Z,100337.94
2022-08-28T00:08:00.536Z,100336.50
2022-08-28T00:10:28.528Z,100336.97
2022-08-28T00:12:56.396Z,100337.78
2022-08-28T00:15:29.229Z,100344.16
2022-08-28T00:18:16.484Z,100347.59
2022-08-28T00:21:04.038Z,100342.78
2022-08-28T00:23:50.896Z,100337.34
2022-08-28T00:26:56.265Z,100337.66
2022-08-28T00:29:43.761Z,100336.22
2022-08-28T00:32:30.651Z,100339.84
2022-08-28T00:34:57.784Z,100338.06
2022-08-28T00:37:24.776Z,100337.56
2022-08-28T00:39:51.565Z,100335.25
2022-08-28T00:42:18.654Z,100342.25
2022-08-28T00:44:45.339Z,100338.50
2022-08-28T00:47:12.533Z,100344.28
2022-08-28T00:49:47.962Z,100338.28
2022-08-28T00:52:16.027Z,100335.84
2022-08-28T00:54:59.646Z,100336.47
2022-08-28T00:57:38.936Z,100328.63
2022-08-28T01:00:09.097Z,100333.44
2022-08-28T01:02:35.789Z,100340.84
2022-08-28T01:05:03.969Z,100331.53
2022-08-28T01:07:30.499Z,100332.47
2022-08-28T01:09:57.449Z,100337.00
2022-08-28T01:12:29.796Z,100337.00
2022-08-28T01:15:00.526Z,100335.06
2022-08-28T01:17:29.628Z,100339.47
2022-08-28T01:20:01.072Z,100337.91
2022-08-28T01:22:40.384Z,100334.16
2022-08-28T01:25:14.727Z,100338.88
2022-08-28T01:27:41.919Z,100338.78
2022-08-28T01:30:12.081Z,100338.06
2022-08-28T01:32:41.560Z,100345.41
2022-08-28T01:35:11.896Z,100343.13
2022-08-28T01:37:38.831Z,100344.81
2022-08-28T01:40:07.654Z,100343.25
2022-08-28T01:42:43.012Z,100342.66
2022-08-28T01:45:13.570Z,100346.03
2022-08-28T01:47:42.433Z,100351.31
2022-08-28T01:50:12.211Z,100350.97
2022-08-28T01:52:39.480Z,100350.59
2022-08-28T01:55:06.956Z,100346.50
2022-08-28T01:57:33.580Z,100347.00
2022-08-28T02:00:00.160Z,100346.75
2022-08-28T02:02:26.724Z,100345.41
2022-08-28T02:04:54.138Z,100345.06
2022-08-28T02:07:20.841Z,100352.03
2022-08-28T02:09:48.023Z,100350.59
2022-08-28T02:12:14.520Z,100351.94
2022-08-28T02:14:41.453Z,100346.50
2022-08-28T02:17:08.346Z,100354.81
2022-08-28T02:19:34.850Z,100348.31
2022-08-28T02:22:01.692Z,100347.09
2022-08-28T02:24:28.273Z,100346.63
2022-08-28T02:26:55.106Z,100343.72
2022-08-28T02:29:21.915Z,100344.47
2022-08-28T02:31:48.573Z,100349.28
2022-08-28T02:34:15.752Z,100348.31
2022-08-28T02:36:42.556Z,100347.47
2022-08-28T02:39:09.717Z,100348.69
2022-08-28T02:41:36.882Z,100349.28
2022-08-28T02:44:05.013Z,100346.13
2022-08-28T02:46:31.699Z,100352.78
2022-08-28T02:48:58.230Z,100352.88
2022-08-28T02:51:25.761Z,100358.06
2022-08-28T02:53:52.635Z,100355.66
2022-08-28T02:56:19.672Z,100348.53
2022-08-28T02:58:46.433Z,100351.44
2022-08-28T03:01:13.376Z,100357.47
2022-08-28T03:03:41.298Z,100348.53
2022-08-28T03:06:10.362Z,100353.50
2022-08-28T03:08:37.430Z,100351.69
2022-08-28T03:11:04.188Z,100350.03
2022-08-28T03:13:31.680Z,100353.25
2022-08-28T03:15:58.784Z,100348.44
2022-08-28T03:18:27.076Z,100353.25
2022-08-28T03:20:54.124Z,100347.50
2022-08-28T03:23:26.534Z,100342.78
2022-08-28T03:25:55.783Z,100353.72
2022-08-28T03:28:22.676Z,100354.81
2022-08-28T03:30:50.574Z,100345.66
2022-08-28T03:33:17.614Z,100347.47
2022-08-28T03:35:44.663Z,100353.00
2022-08-28T03:38:11.564Z,100356.00
2022-08-28T03:40:40.544Z,100356.03
2022-08-28T03:43:07.142Z,100345.44
2022-08-28T03:45:34.107Z,100357.13
2022-08-28T03:48:01.772Z,100356.00
2022-08-28T03:50:28.507Z,100359.03
2022-08-28T03:52:56.403Z,100360.00
2022-08-28T03:55:22.946Z,100363.94
2022-08-28T03:57:50.814Z,100362.41
2022-08-28T04:00:19.064Z,100363.22
2022-08-28T04:02:46.144Z,100356.38
2022-08-28T04:05:14.228Z,100357.97
2022-08-28T04:07:40.765Z,100356.50
2022-08-28T04:10:08.319Z,100356.81
2022-08-28T04:12:35.932Z,100357.09
2022-08-28T04:15:07.071Z,100361.19
2022-08-28T04:17:34.292Z,100366.22
2022-08-28T04:20:01.166Z,100369.25
2022-08-28T04:22:29.649Z,100363.09
2022-08-28T04:24:56.342Z,100368.91
2022-08-28T04:27:22.794Z,100369.75
2022-08-28T04:29:49.850Z,100374.19
2022-08-28T04:32:16.753Z,100376.22
2022-08-28T04:34:43.418Z,100371.50
2022-08-28T04:37:10.844Z,100369.72
2022-08-28T04:39:37.601Z,100377.66
2022-08-28T04:42:04.775Z,100381.13
2022-08-28T04:44:32.147Z,100377.75
2022-08-28T04:46:58.950Z,100384.13
2022-08-28T04:49:26.069Z,100384.13
2022-08-28T04:51:52.729Z,100386.22
2022-08-28T04:54:20.460Z,100385.75
2022-08-28T04:56:47.057Z,100394.09
2022-08-28T04:59:13.996Z,100390.63
2022-08-28T05:01:42.818Z,100389.88
2022-08-28T05:04:11.811Z,100391.22
2022-08-28T05:06:46.451Z,100390.94
2022-08-28T05:09:20.520Z,100394.22
2022-08-28T05:11:49.433Z,100398.56
2022-08-28T05:14:16.515Z,100395.97
2022-08-28T05:16:49.753Z,100402.72
2022-08-28T05:19:18.508Z,100403.50
2022-08-28T05:21:45.738Z,100403.22
2022-08-28T05:24:14.055Z,100403.00
2022-08-28T05:26:41.018Z,100405.19
2022-08-28T05:29:10.152Z,100402.78
2022-08-28T05:31:38.993Z,100410.00
2022-08-28T05:34:08.482Z,100418.66
2022-08-28T05:36:37.441Z,100420.84
2022-08-28T05:39:07.057Z,100429.88
2022-08-28T05:41:34.494Z,100430.16
2022-08-28T05:44:06.618Z,100431.09
2022-08-28T05:46:35.857Z,100437.00
2022-08-28T05:49:04.780Z,100433.00
2022-08-28T05:51:35.408Z,100430.41
2022-08-28T05:54:03.617Z,100425.75
2022-08-28T05:56:34.857Z,100427.84
2022-08-28T05:59:03.188Z,100423.63
2022-08-28T06:01:32.640Z,100433.34
2022-08-28T06:04:03.109Z,100438.59
2022-08-28T06:06:30.517Z,100435.50
2022-08-28T06:08:59.459Z,100432.91
2022-08-28T06:11:30.419Z,100433.13
2022-08-28T06:14:01.726Z,100436.84
2022-08-28T06:16:32.774Z,100434.75
2022-08-28T06:19:00.334Z,100434.19
2022-08-28T06:21:29.441Z,100428.47
2022-08-28T06:23:56.431Z,100433.19
2022-08-28T06:26:23.717Z,100433.31
2022-08-28T06:28:51.169Z,100428.19
2022-08-28T06:31:24.260Z,100432.19
2022-08-28T06:33:56.255Z,100435.59
2022-08-28T06:36:25.211Z,100432.00
2022-08-28T06:38:52.000Z,100436.75
2022-08-28T06:41:19.555Z,100447.03
2022-08-28T06:43:46.391Z,100452.47
2022-08-28T06:46:13.056Z,100447.31
2022-08-28T06:48:40.045Z,100445.75
2022-08-28T06:51:09.455Z,100450.81
2022-08-28T06:53:38.195Z,100458.88
2022-08-28T06:56:11.136Z,100458.06
2022-08-28T06:58:43.304Z,100462.44
2022-08-28T07:01:24.482Z,100456.63
2022-08-28T07:03:53.705Z,100468.81
2022-08-28T07:06:22.650Z,100471.22
2022-08-28T07:08:50.940Z,100472.63
2022-08-28T07:11:25.999Z,100469.78
2022-08-28T07:13:54.313Z,100473.28
2022-08-28T07:16:24.138Z,100458.06
2022-08-28T07:18:51.270Z,100468.91
2022-08-28T07:21:17.797Z,100462.88
2022-08-28T07:23:46.001Z,100465.53
2022-08-28T07:26:17.548Z,100469.66
2022-08-28T07:28:45.382Z,100463.47
2022-08-28T07:31:16.084Z,100467.69
2022-08-28T07:33:43.508Z,100469.97
2022-08-28T07:36:16.025Z,100476.13
2022-08-28T07:38:58.871Z,100472.94
2022-08-28T07:41:31.630Z,100476.66
2022-08-28T07:44:34.547Z,100482.44
2022-08-28T07:47:06.231Z,100483.47
2022-08-28T07:49:35.797Z,100488.03
2022-08-28T07:52:02.947Z,100484.56
2022-08-28T07:54:29.474Z,100489.00
2022-08-28T07:56:56.341Z,100481.84
2022-08-28T07:59:22.851Z,100489.19
2022-08-28T08:01:52.114Z,100485.00
2022-08-28T08:04:20.701Z,100483.63
2022-08-28T08:06:47.273Z,100491.41
2022-08-28T08:09:16.471Z,100496.88
2022-08-28T08:11:44.158Z,100500.41
2022-08-28T08:14:12.275Z,100503.97
2022-08-28T08:16:42.227Z,100492.94
2022-08-28T08:19:14.084Z,100498.91
2022-08-28T08:21:46.644Z,100500.69
2022-08-28T08:24:20.756Z,100508.75
2022-08-28T08:26:58.980Z,100507.84
2022-08-28T08:29:35.902Z,100502.69
2022-08-28T08:32:07.745Z,100504.41
2022-08-28T08:34:38.785Z,100503.84
2022-08-28T08:37:06.330Z,100499.16
2022-08-28T08:39:36.881Z,100496.19
2022-08-28T08:42:07.389Z,100503.19
2022-08-28T08:44:40.643Z,100502.78
2022-08-28T08:47:43.498Z,100504.19
2022-08-28T08:50:22.561Z,100510.91
2022-08-28T08:53:12.516Z,100510.75
2022-08-28T08:55:46.672Z,100513.25
2022-08-28T08:58:35.026Z,100508.41
2022-08-28T09:01:14.613Z,100508.69
2022-08-28T09:03:55.882Z,100497.28
2022-08-28T09:06:44.524Z,100511.59
2022-08-28T09:09:18.411Z,100514.81
2022-08-28T09:11:58.334Z,100514.38
2022-08-28T09:14:37.455Z,100510.75
2022-08-28T09:17:07.025Z,100516.84
2022-08-28T09:19:33.773Z,100516.38
2022-08-28T09:22:02.241Z,100517.22
2022-08-28T09:24:38.016Z,100528.81
2022-08-28T09:27:25.407Z,100522.94
2022-08-28T09:29:59.128Z,100520.84
2022-08-28T09:32:35.443Z,100517.84
2022-08-28T09:35:25.340Z,100525.75
2022-08-28T09:37:52.118Z,100525.09
2022-08-28T09:40:49.585Z,100523.88
2022-08-28T09:43:27.483Z,100523.75
2022-08-28T09:46:17.399Z,100522.28
2022-08-28T09:48:45.409Z,100516.66
2022-08-28T09:51:21.209Z,100516.44
2022-08-28T09:53:50.676Z,100512.78
2022-08-28T09:56:36.746Z,100510.59
2022-08-28T09:59:07.859Z,100512.03
2022-08-28T10:01:51.734Z,100508.78
2022-08-28T10:04:33.024Z,100506.16
2022-08-28T10:07:18.968Z,100510.16
2022-08-28T10:10:20.197Z,100506.47
2022-08-28T10:13:10.099Z,100497.75
2022-08-28T10:15:55.771Z,100506.34
2022-08-28T10:18:31.787Z,100509.03
2022-08-28T10:21:09.552Z,100500.31
2022-08-28T10:24:13.781Z,100508.09
2022-08-28T10:26:47.241Z,100499.81
2022-08-28T10:29:35.041Z,100497.91
2022-08-28T10:32:34.744Z,100498.16
2022-08-28T10:35:13.633Z,100507.81
2022-08-28T10:37:55.565Z,100498.47
2022-08-28T10:40:32.690Z,100500.66
2022-08-28T10:43:08.692Z,100501.31
2022-08-28T10:45:35.879Z,100493.56
2022-08-28T10:48:17.513Z,100501.50
2022-08-28T10:50:52.592Z,100505.47
2022-08-28T10:53:50.714Z,100503.50
2022-08-28T10:56:40.589Z,100492.81
2022-08-28T10:59:07.082Z,100501.31
2022-08-28T11:01:38.484Z,100492.19
2022-08-28T11:04:24.694Z,100488.16
2022-08-28T11:07:15.378Z,100492.19
2022-08-28T11:09:46.051Z,100493.44
2022-08-28T11:12:20.015Z,100487.13
2022-08-28T11:14:51.032Z,100489.16
2022-08-28T11:17:27.667Z,100485.91
2022-08-28T11:20:07.084Z,100481.41
2022-08-28T11:22:39.796Z,100490.38
2022-08-28T11:25:13.689Z,100487.28
2022-08-28T11:28:00.463Z,100493.56
2022-08-28T11:30:33.024Z,100481.81
2022-08-28T11:33:02.635Z,100488.06
2022-08-28T11:35:29.362Z,100490.31
2022-08-28T11:37:58.003Z,100484.50
2022-08-28T11:40:32.077Z,100482.63
2022-08-28T11:43:14.579Z,100483.59
2022-08-28T11:45:45.704Z,100481.59
2022-08-28T11:48:22.771Z,100484.66
2022-08-28T11:50:57.220Z,100473.75
2022-08-28T11:53:26.707Z,100481.00
2022-08-28T11:56:31.387Z,100477.28
2022-08-28T11:59:24.731Z,100476.25
2022-08-28T12:01:52.104Z,100490.41
2022-08-28T12:04:22.162Z,100490.19
2022-08-28T12:07:12.007Z,100476.41
2022-08-28T12:09:45.267Z,100480.66
2022-08-28T12:12:22.244Z,100474.88
2022-08-28T12:14:54.942Z,100472.88
2022-08-28T12:17:21.830Z,100476.66
2022-08-28T12:19:52.465Z,100473.22
2022-08-28T12:22:26.480Z,100472.63
2022-08-28T12:25:03.199Z,100474.31
2022-08-28T12:27:31.727Z,100472.38
2022-08-28T12:30:00.742Z,100475.44
2022-08-28T12:32:46.304Z,100468.16
2022-08-28T12:35:30.167Z,100465.56
2022-08-28T12:37:57.594Z,100466.72
2022-08-28T12:40:28.818Z,100473.00
2022-08-28T12:43:05.339Z,100477.19
2022-08-28T12:45:39.639Z,100470.38
2022-08-28T12:48:29.251Z,100465.75
2022-08-28T12:51:09.055Z,100464.69
2022-08-28T12:53:43.501Z,100457.78
2022-08-28T12:56:11.901Z,100458.25
2022-08-28T12:58:40.440Z,100457.34
2022-08-28T13:01:10.115Z,100450.47
2022-08-28T13:03:53.302Z,100452.28
2022-08-28T13:06:32.639Z,100453.84
2022-08-28T13:09:14.287Z,100455.16
2022-08-28T13:11:50.753Z,100447.75
2022-08-28T13:14:41.816Z,100447.56
2022-08-28T13:17:09.373Z,100444.78
2022-08-28T13:19:37.771Z,100448.53
2022-08-28T13:22:29.192Z,100443.88
2022-08-28T13:25:01.607Z,100439.28
2022-08-28T13:27:29.158Z,100447.81
2022-08-28T13:30:08.257Z,100442.41
2022-08-28T13:32:39.237Z,100432.78
2022-08-28T13:35:16.574Z,100431.69
2022-08-28T13:37:50.260Z,100418.34
2022-08-28T13:40:53.223Z,100427.75
2022-08-28T13:43:10.187Z,100418.41
2022-08-28T13:45:44.198Z,100422.59
2022-08-28T13:48:37.463Z,100412.56
2022-08-28T13:51:11.243Z,100415.28
2022-08-28T13:53:39.793Z,100414.94
2022-08-28T13:56:06.691Z,100423.31
2022-08-28T13:58:33.272Z,100424.25
2022-08-28T14:01:00.942Z,100429.06
2022-08-28T14:03:37.969Z,100429.19
2022-08-28T14:06:14.075Z,100414.16
2022-08-28T14:08:43.205Z,100430.25
2022-08-28T14:11:12.656Z,100431.75
2022-08-28T14:13:40.247Z,100421.44
2022-08-28T14:16:07.823Z,100424.88
2022-08-28T14:18:35.229Z,100424.75
2022-08-28T14:21:05.145Z,100410.59
2022-08-28T14:23:33.703Z,100414.88
2022-08-28T14:26:00.197Z,100414.41
2022-08-28T14:28:26.939Z,100421.47
2022-08-28T14:30:53.447Z,100413.38
2022-08-28T14:33:20.723Z,100416.59
2022-08-28T14:35:48.757Z,100414.88
2022-08-28T14:38:16.310Z,100415.72
2022-08-28T14:40:44.055Z,100423.00
2022-08-28T14:43:12.406Z,100411.88
2022-08-28T14:45:43.342Z,100413.72
2022-08-28T14:48:10.368Z,100409.81
2022-08-28T14:50:42.423Z,100407.84
2022-08-28T14:53:09.672Z,100410.31
2022-08-28T14:55:54.279Z,100406.47
2022-08-28T14:58:21.068Z,100405.72
2022-08-28T15:00:50.049Z,100415.00
2022-08-28T15:03:18.536Z,100404.44
2022-08-28T15:05:46.058Z,100399.41
2022-08-28T15:08:16.595Z,100396.84
2022-08-28T15:10:44.031Z,100401.44
2022-08-28T15:13:11.345Z,100399.63
2022-08-28T15:15:41.183Z,100397.97
2022-08-28T15:18:10.145Z,100398.94
2022-08-28T15:20:42.174Z,100393.91
2022-08-28T15:23:10.274Z,100402.38
2022-08-28T15:25:37.248Z,100394.09
2022-08-28T15:28:04.794Z,100397.03
2022-08-28T15:30:31.962Z,100397.91
2022-08-28T15:33:01.206Z,100397.31
2022-08-28T15:35:28.271Z,100390.56
2022-08-28T15:37:54.777Z,100385.94
2022-08-28T15:40:40.043Z,100386.00
2022-08-28T15:43:06.775Z,100387.28
2022-08-28T15:45:37.469Z,100390.88
2022-08-28T15:48:04.276Z,100389.13
2022-08-28T15:50:30.934Z,100392.34
2022-08-28T15:52:57.717Z,100388.03
2022-08-28T15:55:27.241Z,100388.78
2022-08-28T15:57:55.021Z,100389.09
2022-08-28T16:00:22.488Z,100391.19
2022-08-28T16:02:49.103Z,100405.13
2022-08-28T16:05:16.211Z,100389.78
2022-08-28T16:07:42.945Z,100391.75
2022-08-28T16:10:13.316Z,100391.53
2022-08-28T16:12:40.819Z,100389.97
2022-08-28T16:15:08.797Z,100382.53
2022-08-28T16:17:36.601Z,100392.69
2022-08-28T16:20:06.570Z,100384.56
2022-08-28T16:22:39.367Z,100392.31
2022-08-28T16:25:06.686Z,100396.59
2022-08-28T16:27:33.671Z,100396.31
2022-08-28T16:30:00.892Z,100389.72
2022-08-28T16:32:27.714Z,100389.00
2022-08-28T16:34:54.490Z,100388.72
2022-08-28T16:37:21.532Z,100396.31
2022-08-28T16:39:53.772Z,100396.13
2022-08-28T16:42:20.683Z,100395.56
2022-08-28T16:44:47.250Z,100392.47
2022-08-28T16:47:14.480Z,100390.94
2022-08-28T16:49:40.951Z,100392.00
2022-08-28T16:52:07.605Z,100395.06
2022-08-28T16:54:34.301Z,100387.81
2022-08-28T16:57:01.935Z,100394.66
2022-08-28T16:59:28.767Z,100394.31
2022-08-28T17:01:55.798Z,100382.94
2022-08-28T17:04:22.654Z,100393.00
2022-08-28T17:06:49.380Z,100387.16
2022-08-28T17:09:15.836Z,100388.25
2022-08-28T17:11:42.352Z,100385.25
2022-08-28T17:14:10.978Z,100392.06
2022-08-28T17:16:38.441Z,100392.56
2022-08-28T17:19:04.980Z,100384.69
2022-08-28T17:21:50.881Z,100378.53
2022-08-28T17:24:17.840Z,100394.19
2022-08-28T17:26:44.819Z,100396.38
2022-08-28T17:29:11.772Z,100389.53
2022-08-28T17:31:38.732Z,100394.97
2022-08-28T17:34:07.282Z,100397.63
2022-08-28T17:36:36.929Z,100399.72
2022-08-28T17:39:08.868Z,100405.72
2022-08-28T17:41:35.867Z,100412.22
2022-08-28T17:44:03.236Z,100405.34
2022-08-28T17:46:33.991Z,100411.34
2022-08-28T17:49:05.215Z,100407.31
2022-08-28T17:51:42.753Z,100411.81
2022-08-28T17:54:21.364Z,100412.72
2022-08-28T17:56:48.452Z,100421.91
2022-08-28T17:59:16.024Z,100425.34
2022-08-28T18:01:45.087Z,100424.44
2022-08-28T18:04:12.967Z,100425.03
2022-08-28T18:06:40.159Z,100427.03
2022-08-28T18:09:09.880Z,100433.13
2022-08-28T18:11:37.386Z,100430.69
2022-08-28T18:14:04.853Z,100429.94
2022-08-28T18:16:33.383Z,100435.81
2022-08-28T18:19:01.528Z,100430.63
2022-08-28T18:21:29.139Z,100435.25
2022-08-28T18:23:56.011Z,100445.81
2022-08-28T18:26:23.457Z,100440.94
2022-08-28T18:28:50.825Z,100444.47
2022-08-28T18:31:18.412Z,100450.13
2022-08-28T18:33:45.149Z,100455.31
2022-08-28T18:36:13.828Z,100450.09
2022-08-28T18:38:40.922Z,100454.38
2022-08-28T18:41:09.401Z,100462.31
2022-08-28T18:43:36.794Z,100456.00
2022-08-28T18:46:05.322Z,100456.81
2022-08-28T18:48:32.945Z,100470.19
2022-08-28T18:50:59.682Z,100470.75
2022-08-28T18:53:26.527Z,100476.09
2022-08-28T18:55:54.951Z,100479.69
2022-08-28T18:58:23.647Z,100480.44
2022-08-28T19:00:51.020Z,100474.34
2022-08-28T19:03:17.487Z,100488.81
2022-08-28T19:05:44.333Z,100485.72
2022-08-28T19:08:11.352Z,100493.63
2022-08-28T19:10:38.588Z,100496.56
2022-08-28T19:13:06.642Z,100494.63
2022-08-28T19:15:35.809Z,100490.72
2022-08-28T19:18:04.093Z,100505.41
2022-08-28T19:20:31.840Z,100501.34
2022-08-28T19:22:59.344Z,100508.53
2022-08-28T19:25:29.201Z,100515.31
2022-08-28T19:28:01.303Z,100514.06
2022-08-28T19:30:31.295Z,100518.50
2022-08-28T19:32:57.830Z,100514.31
2022-08-28T19:35:25.230Z,100520.13
2022-08-28T19:37:55.615Z,100518.72
2022-08-28T19:40:23.153Z,100521.41
2022-08-28T19:42:49.921Z,100529.69
2022-08-28T19:45:17.875Z,100520.59
2022-08-28T19:47:44.979Z,100528.00
2022-08-28T19:50:13.819Z,100534.06
2022-08-28T19:52:41.333Z,100531.41
2022-08-28T19:55:08.373Z,100533.34
2022-08-28T19:57:35.027Z,100537.13
2022-08-28T20:00:02.438Z,100538.63
2022-08-28T20:02:30.868Z,100541.03
2022-08-28T20:04:57.429Z,100545.22
2022-08-28T20:07:24.846Z,100555.56
2022-08-28T20:09:52.332Z,100551.75
2022-08-28T20:12:19.792Z,100543.44
2022-08-28T20:14:46.688Z,100539.78
2022-08-28T20:17:13.847Z,100542.72
2022-08-28T20:19:40.446Z,100546.28
2022-08-28T20:22:06.969Z,100541.88
2022-08-28T20:24:37.292Z,100551.34
2022-08-28T20:27:04.230Z,100552.41
2022-08-28T20:29:31.258Z,100552.09
2022-08-28T20:31:58.002Z,100552.38
2022-08-28T20:34:24.578Z,100552.56
2022-08-28T20:36:51.972Z,100553.53
2022-08-28T20:39:20.342Z,100554.78
2022-08-28T20:41:47.929Z,100558.28
2022-08-28T20:44:16.102Z,100549.63
2022-08-28T20:46:43.569Z,100558.59
2022-08-28T20:49:11.535Z,100556.84
2022-08-28T20:51:53.932Z,100562.91
2022-08-28T20:54:27.023Z,100561.72
2022-08-28T20:56:54.356Z,100561.38
2022-08-28T20:59:21.706Z,100562.06
2022-08-28T21:01:51.746Z,100573.53
2022-08-28T21:04:19.022Z,100575.72
2022-08-28T21:06:49.015Z,100571.34
2022-08-28T21:09:17.639Z,100577.84
2022-08-28T21:11:44.719Z,100575.28
2022-08-28T21:14:11.713Z,100574.03
2022-08-28T21:16:40.062Z,100571.28
2022-08-28T21:19:15.733Z,100572.06
2022-08-28T21:21:44.179Z,100580.34
2022-08-28T21:24:13.468Z,100584.59
2022-08-28T21:26:43.252Z,100588.97
2022-08-28T21:29:11.354Z,100585.31
2022-08-28T21:31:41.146Z,100587.84
2022-08-28T21:34:09.344Z,100584.44
2022-08-28T21:36:38.706Z,100579.09
2022-08-28T21:39:05.967Z,100582.38
2022-08-28T21:41:33.165Z,100581.25
2022-08-28T21:43:59.937Z,100580.47
2022-08-28T21:46:27.745Z,100580.44
2022-08-28T21:48:56.199Z,100589.66
2022-08-28T21:51:25.118Z,100582.34
2022-08-28T21:53:54.304Z,100583.84
2022-08-28T21:56:23.890Z,100593.78
2022-08-28T21:58:53.146Z,100589.03
2022-08-28T22:01:21.250Z,100595.06
2022-08-28T22:03:48.081Z,100601.09
2022-08-28T22:06:18.371Z,100591.34
2022-08-28T22:08:46.589Z,100594.94
2022-08-28T22:11:15.708Z,100595.91
2022-08-28T22:13:43.552Z,100599.53
2022-08-28T22:16:10.659Z,100607.47
2022-08-28T22:18:37.789Z,100602.28
2022-08-28T22:21:23.692Z,100600.50
2022-08-28T22:23:51.033Z,100603.78
2022-08-28T22:26:20.814Z,100598.56
2022-08-28T22:28:47.922Z,100608.75
2022-08-28T22:31:14.653Z,100604.81
2022-08-28T22:33:42.827Z,100606.53
2022-08-28T22:36:11.002Z,100611.50
2022-08-28T22:38:39.253Z,100609.38
2022-08-28T22:41:07.331Z,100618.16
2022-08-28T22:43:34.984Z,100611.94
2022-08-28T22:46:01.866Z,100610.97
2022-08-28T22:48:28.376Z,100621.03
2022-08-28T22:51:04.624Z,100617.25
2022-08-28T22:53:31.874Z,100626.03
2022-08-28T22:56:00.418Z,100628.91
2022-08-28T22:58:32.837Z,100622.22
2022-08-28T23:01:02.268Z,100634.31
2022-08-28T23:03:29.038Z,100622.88
2022-08-28T23:05:56.198Z,100623.81
2022-08-28T23:08:22.970Z,100623.41
2022-08-28T23:10:59.596Z,100616.94
2022-08-28T23:13:27.434Z,100621.09
2022-08-28T23:15:54.327Z,100621.94
2022-08-28T23:18:21.054Z,100619.50
2022-08-28T23:20:47.741Z,100624.34
2022-08-28T23:23:17.300Z,100630.09
2022-08-28T23:25:44.537Z,100629.13
2022-08-28T23:28:11.664Z,100631.44
2022-08-28T23:30:38.954Z,100628.06
2022-08-28T23:33:08.496Z,100632.72
2022-08-28T23:35:36.290Z,100632.31
2022-08-28T23:38:04.842Z,100631.03
2022-08-28T23:40:33.744Z,100627.44
2022-08-28T23:43:01.001Z,100629.13
2022-08-28T23:45:27.633Z,100631.78
2022-08-28T23:47:55.244Z,100625.00
2022-08-28T23:50:23.092Z,100629.69
2022-08-28T23:52:50.428Z,100629.78
2022-08-28T23:55:19.537Z,100627.97
2022-08-28T23:57:46.205Z,100629.25
